RJTE(METAR)
01/24 01:00
METAR RJTE 231600Z 15003KT 100V220 9999 FEW030 01/M08 Q1016 RMK
1CU030 A3002=
戻る
トップページへ戻る
IMOC Co,.Ltd.